sensor_id;sensor_type;location;lat;lon;timestamp;P1;durP1;ratioP1;P2;durP2;ratioP2
67528;SDS011;54366;51.980;5.856;2023-03-03T00:00:57;26.90;;;19.55;;
67528;SDS011;54366;51.980;5.856;2023-03-03T00:03:30;27.75;;;18.83;;
67528;SDS011;54366;51.980;5.856;2023-03-03T00:05:57;29.45;;;19.35;;
67528;SDS011;54366;51.980;5.856;2023-03-03T00:08:30;24.20;;;17.08;;
67528;SDS011;54366;51.980;5.856;2023-03-03T00:11:03;26.05;;;17.10;;
67528;SDS011;54366;51.980;5.856;2023-03-03T00:13:45;29.58;;;19.83;;
67528;SDS011;54366;51.980;5.856;2023-03-03T00:19:14;23.58;;;15.43;;
67528;SDS011;54366;51.980;5.856;2023-03-03T00:21:51;28.10;;;18.55;;
67528;SDS011;54366;51.980;5.856;2023-03-03T00:24:34;28.35;;;19.65;;
67528;SDS011;54366;51.980;5.856;2023-03-03T00:30:18;26.42;;;17.65;;
67528;SDS011;54366;51.980;5.856;2023-03-03T00:32:57;30.75;;;19.73;;
67528;SDS011;54366;51.980;5.856;2023-03-03T00:35:32;30.40;;;20.30;;
67528;SDS011;54366;51.980;5.856;2023-03-03T00:38:11;29.42;;;19.33;;
67528;SDS011;54366;51.980;5.856;2023-03-03T00:40:47;31.35;;;20.92;;
67528;SDS011;54366;51.980;5.856;2023-03-03T00:43:21;28.42;;;18.30;;
67528;SDS011;54366;51.980;5.856;2023-03-03T00:45:50;37.70;;;23.10;;
67528;SDS011;54366;51.980;5.856;2023-03-03T00:48:28;32.88;;;21.17;;
67528;SDS011;54366;51.980;5.856;2023-03-03T00:51:45;30.13;;;19.15;;
67528;SDS011;54366;51.980;5.856;2023-03-03T00:54:11;32.67;;;19.98;;
67528;SDS011;54366;51.980;5.856;2023-03-03T00:56:50;29.60;;;19.38;;
67528;SDS011;54366;51.980;5.856;2023-03-03T00:59:23;33.55;;;21.20;;
67528;SDS011;54366;51.980;5.856;2023-03-03T01:01:56;35.20;;;23.17;;
67528;SDS011;54366;51.980;5.856;2023-03-03T01:04:23;36.28;;;22.30;;
67528;SDS011;54366;51.980;5.856;2023-03-03T01:06:56;35.78;;;22.77;;
67528;SDS011;54366;51.980;5.856;2023-03-03T01:09:29;32.67;;;19.70;;
67528;SDS011;54366;51.980;5.856;2023-03-03T01:12:02;29.33;;;19.00;;
67528;SDS011;54366;51.980;5.856;2023-03-03T01:14:35;34.90;;;21.50;;
67528;SDS011;54366;51.980;5.856;2023-03-03T01:17:08;35.88;;;21.40;;
67528;SDS011;54366;51.980;5.856;2023-03-03T01:19:41;33.40;;;22.38;;
67528;SDS011;54366;51.980;5.856;2023-03-03T01:22:14;31.58;;;20.30;;
67528;SDS011;54366;51.980;5.856;2023-03-03T01:24:49;26.08;;;17.80;;
67528;SDS011;54366;51.980;5.856;2023-03-03T01:27:21;29.65;;;19.33;;
67528;SDS011;54366;51.980;5.856;2023-03-03T01:29:54;27.60;;;17.92;;
67528;SDS011;54366;51.980;5.856;2023-03-03T01:32:27;28.65;;;18.63;;
67528;SDS011;54366;51.980;5.856;2023-03-03T01:35:01;27.23;;;18.67;;
67528;SDS011;54366;51.980;5.856;2023-03-03T01:37:34;25.75;;;17.42;;
67528;SDS011;54366;51.980;5.856;2023-03-03T01:40:07;23.40;;;16.08;;
67528;SDS011;54366;51.980;5.856;2023-03-03T01:42:46;25.70;;;17.63;;
67528;SDS011;54366;51.980;5.856;2023-03-03T01:45:21;26.13;;;17.20;;
67528;SDS011;54366;51.980;5.856;2023-03-03T01:48:09;23.30;;;15.93;;
67528;SDS011;54366;51.980;5.856;2023-03-03T01:51:24;23.80;;;17.23;;
67528;SDS011;54366;51.980;5.856;2023-03-03T01:54:02;24.85;;;16.30;;
67528;SDS011;54366;51.980;5.856;2023-03-03T01:56:37;23.35;;;15.15;;
67528;SDS011;54366;51.980;5.856;2023-03-03T01:59:13;25.13;;;16.60;;
67528;SDS011;54366;51.980;5.856;2023-03-03T02:01:49;24.77;;;16.80;;
67528;SDS011;54366;51.980;5.856;2023-03-03T02:04:23;26.92;;;18.38;;
67528;SDS011;54366;51.980;5.856;2023-03-03T02:06:59;22.08;;;15.10;;
67528;SDS011;54366;51.980;5.856;2023-03-03T02:09:49;27.02;;;18.55;;
67528;SDS011;54366;51.980;5.856;2023-03-03T02:12:53;25.10;;;16.08;;
67528;SDS011;54366;51.980;5.856;2023-03-03T02:15:29;26.52;;;17.95;;
67528;SDS011;54366;51.980;5.856;2023-03-03T02:18:05;28.35;;;18.52;;
67528;SDS011;54366;51.980;5.856;2023-03-03T02:27:20;26.35;;;18.15;;
67528;SDS011;54366;51.980;5.856;2023-03-03T02:29:54;26.48;;;16.52;;
67528;SDS011;54366;51.980;5.856;2023-03-03T02:32:26;23.33;;;15.27;;
67528;SDS011;54366;51.980;5.856;2023-03-03T02:34:59;22.55;;;14.80;;
67528;SDS011;54366;51.980;5.856;2023-03-03T02:37:32;20.85;;;14.68;;
67528;SDS011;54366;51.980;5.856;2023-03-03T02:40:06;22.50;;;15.60;;
67528;SDS011;54366;51.980;5.856;2023-03-03T02:42:40;27.00;;;17.42;;
67528;SDS011;54366;51.980;5.856;2023-03-03T02:45:14;23.35;;;14.82;;
67528;SDS011;54366;51.980;5.856;2023-03-03T02:47:48;23.60;;;15.52;;
67528;SDS011;54366;51.980;5.856;2023-03-03T02:50:22;21.40;;;14.70;;
67528;SDS011;54366;51.980;5.856;2023-03-03T02:52:56;24.27;;;15.60;;
67528;SDS011;54366;51.980;5.856;2023-03-03T02:55:36;27.30;;;16.98;;
67528;SDS011;54366;51.980;5.856;2023-03-03T02:58:15;24.20;;;15.07;;
67528;SDS011;54366;51.980;5.856;2023-03-03T03:00:42;28.15;;;17.90;;
67528;SDS011;54366;51.980;5.856;2023-03-03T03:03:18;24.73;;;16.17;;
67528;SDS011;54366;51.980;5.856;2023-03-03T03:05:51;25.38;;;16.45;;
67528;SDS011;54366;51.980;5.856;2023-03-03T03:08:24;22.55;;;14.70;;
67528;SDS011;54366;51.980;5.856;2023-03-03T03:10:56;24.48;;;16.67;;
67528;SDS011;54366;51.980;5.856;2023-03-03T03:13:30;26.02;;;17.30;;
67528;SDS011;54366;51.980;5.856;2023-03-03T03:16:04;28.58;;;18.75;;
67528;SDS011;54366;51.980;5.856;2023-03-03T03:18:31;25.70;;;16.80;;
67528;SDS011;54366;51.980;5.856;2023-03-03T03:21:05;26.92;;;18.10;;
67528;SDS011;54366;51.980;5.856;2023-03-03T03:23:33;24.10;;;16.20;;
67528;SDS011;54366;51.980;5.856;2023-03-03T03:26:07;22.10;;;15.00;;
67528;SDS011;54366;51.980;5.856;2023-03-03T03:28:40;28.10;;;18.52;;
67528;SDS011;54366;51.980;5.856;2023-03-03T03:31:14;29.60;;;19.33;;
67528;SDS011;54366;51.980;5.856;2023-03-03T03:33:48;26.85;;;17.33;;
67528;SDS011;54366;51.980;5.856;2023-03-03T03:36:21;28.15;;;18.15;;
67528;SDS011;54366;51.980;5.856;2023-03-03T03:38:55;24.27;;;16.02;;
67528;SDS011;54366;51.980;5.856;2023-03-03T03:41:21;31.90;;;19.85;;
67528;SDS011;54366;51.980;5.856;2023-03-03T03:43:54;27.83;;;18.05;;
67528;SDS011;54366;51.980;5.856;2023-03-03T03:46:27;28.85;;;18.20;;
67528;SDS011;54366;51.980;5.856;2023-03-03T03:49:01;26.63;;;17.60;;
67528;SDS011;54366;51.980;5.856;2023-03-03T03:51:33;29.05;;;18.45;;
67528;SDS011;54366;51.980;5.856;2023-03-03T03:54:13;29.35;;;18.00;;
67528;SDS011;54366;51.980;5.856;2023-03-03T03:59:28;37.45;;;23.40;;
67528;SDS011;54366;51.980;5.856;2023-03-03T04:02:01;33.13;;;21.57;;
67528;SDS011;54366;51.980;5.856;2023-03-03T04:04:34;41.53;;;25.15;;
67528;SDS011;54366;51.980;5.856;2023-03-03T04:07:08;34.38;;;20.58;;
67528;SDS011;54366;51.980;5.856;2023-03-03T04:09:40;35.30;;;21.13;;
67528;SDS011;54366;51.980;5.856;2023-03-03T04:12:14;31.42;;;20.02;;
67528;SDS011;54366;51.980;5.856;2023-03-03T04:14:46;38.58;;;22.40;;
67528;SDS011;54366;51.980;5.856;2023-03-03T04:17:20;32.78;;;20.92;;
67528;SDS011;54366;51.980;5.856;2023-03-03T04:19:55;38.88;;;22.77;;
67528;SDS011;54366;51.980;5.856;2023-03-03T04:22:29;44.43;;;25.60;;
67528;SDS011;54366;51.980;5.856;2023-03-03T04:24:59;35.88;;;21.95;;
67528;SDS011;54366;51.980;5.856;2023-03-03T04:27:39;34.00;;;19.60;;
67528;SDS011;54366;51.980;5.856;2023-03-03T04:32:41;38.53;;;21.60;;
67528;SDS011;54366;51.980;5.856;2023-03-03T04:35:18;33.90;;;19.85;;
67528;SDS011;54366;51.980;5.856;2023-03-03T04:37:44;34.10;;;19.80;;
67528;SDS011;54366;51.980;5.856;2023-03-03T04:40:18;34.47;;;19.83;;
67528;SDS011;54366;51.980;5.856;2023-03-03T04:42:51;36.33;;;20.55;;
67528;SDS011;54366;51.980;5.856;2023-03-03T04:45:18;42.42;;;24.38;;
67528;SDS011;54366;51.980;5.856;2023-03-03T04:47:51;34.35;;;19.23;;
67528;SDS011;54366;51.980;5.856;2023-03-03T04:50:23;34.67;;;19.50;;
67528;SDS011;54366;51.980;5.856;2023-03-03T04:52:57;35.90;;;20.95;;
67528;SDS011;54366;51.980;5.856;2023-03-03T04:55:30;30.65;;;18.52;;
67528;SDS011;54366;51.980;5.856;2023-03-03T04:58:03;33.85;;;20.33;;
67528;SDS011;54366;51.980;5.856;2023-03-03T05:00:37;39.38;;;22.98;;
67528;SDS011;54366;51.980;5.856;2023-03-03T05:03:11;33.72;;;19.92;;
67528;SDS011;54366;51.980;5.856;2023-03-03T05:05:39;36.95;;;21.67;;
67528;SDS011;54366;51.980;5.856;2023-03-03T05:08:12;30.38;;;18.50;;
67528;SDS011;54366;51.980;5.856;2023-03-03T05:10:45;32.88;;;19.83;;
67528;SDS011;54366;51.980;5.856;2023-03-03T05:13:18;34.13;;;20.77;;
67528;SDS011;54366;51.980;5.856;2023-03-03T05:15:52;42.72;;;24.75;;
67528;SDS011;54366;51.980;5.856;2023-03-03T05:18:26;37.28;;;23.35;;
67528;SDS011;54366;51.980;5.856;2023-03-03T05:20:59;45.45;;;25.15;;
67528;SDS011;54366;51.980;5.856;2023-03-03T05:23:32;33.33;;;18.95;;
67528;SDS011;54366;51.980;5.856;2023-03-03T05:26:05;36.15;;;20.38;;
67528;SDS011;54366;51.980;5.856;2023-03-03T05:28:38;34.47;;;21.23;;
67528;SDS011;54366;51.980;5.856;2023-03-03T05:31:05;35.67;;;21.30;;
67528;SDS011;54366;51.980;5.856;2023-03-03T05:33:37;34.08;;;18.85;;
67528;SDS011;54366;51.980;5.856;2023-03-03T05:36:10;32.95;;;20.05;;
67528;SDS011;54366;51.980;5.856;2023-03-03T05:38:43;31.77;;;19.27;;
67528;SDS011;54366;51.980;5.856;2023-03-03T05:41:16;30.23;;;17.52;;
67528;SDS011;54366;51.980;5.856;2023-03-03T05:43:49;28.85;;;17.00;;
67528;SDS011;54366;51.980;5.856;2023-03-03T05:46:22;28.60;;;18.00;;
67528;SDS011;54366;51.980;5.856;2023-03-03T05:48:55;26.73;;;16.65;;
67528;SDS011;54366;51.980;5.856;2023-03-03T05:51:28;25.38;;;15.27;;
67528;SDS011;54366;51.980;5.856;2023-03-03T05:54:01;26.80;;;16.60;;
67528;SDS011;54366;51.980;5.856;2023-03-03T05:56:41;21.75;;;13.63;;
67528;SDS011;54366;51.980;5.856;2023-03-03T05:59:20;23.08;;;14.27;;
67528;SDS011;54366;51.980;5.856;2023-03-03T06:01:53;18.48;;;12.32;;
67528;SDS011;54366;51.980;5.856;2023-03-03T06:04:26;24.20;;;15.20;;
67528;SDS011;54366;51.980;5.856;2023-03-03T06:07:00;20.20;;;12.52;;
67528;SDS011;54366;51.980;5.856;2023-03-03T06:09:32;20.58;;;12.85;;
67528;SDS011;54366;51.980;5.856;2023-03-03T06:11:59;19.65;;;12.00;;
67528;SDS011;54366;51.980;5.856;2023-03-03T06:14:31;18.30;;;11.82;;
67528;SDS011;54366;51.980;5.856;2023-03-03T06:17:04;21.15;;;13.15;;
67528;SDS011;54366;51.980;5.856;2023-03-03T06:19:38;24.63;;;14.60;;
67528;SDS011;54366;51.980;5.856;2023-03-03T06:22:06;26.20;;;16.20;;
67528;SDS011;54366;51.980;5.856;2023-03-03T06:24:39;24.67;;;15.32;;
67528;SDS011;54366;51.980;5.856;2023-03-03T06:27:12;22.33;;;13.30;;
67528;SDS011;54366;51.980;5.856;2023-03-03T06:29:45;21.30;;;13.38;;
67528;SDS011;54366;51.980;5.856;2023-03-03T06:32:12;23.65;;;14.68;;
67528;SDS011;54366;51.980;5.856;2023-03-03T06:34:44;23.48;;;14.93;;
67528;SDS011;54366;51.980;5.856;2023-03-03T06:37:17;25.05;;;15.68;;
67528;SDS011;54366;51.980;5.856;2023-03-03T06:39:50;19.98;;;12.65;;
67528;SDS011;54366;51.980;5.856;2023-03-03T06:42:23;25.08;;;15.77;;
67528;SDS011;54366;51.980;5.856;2023-03-03T06:44:56;24.48;;;16.08;;
67528;SDS011;54366;51.980;5.856;2023-03-03T06:47:23;28.45;;;16.60;;
67528;SDS011;54366;51.980;5.856;2023-03-03T06:49:55;23.00;;;14.15;;
67528;SDS011;54366;51.980;5.856;2023-03-03T06:52:28;24.85;;;14.95;;
67528;SDS011;54366;51.980;5.856;2023-03-03T06:55:09;24.88;;;14.38;;
67528;SDS011;54366;51.980;5.856;2023-03-03T06:57:51;24.70;;;15.10;;
67528;SDS011;54366;51.980;5.856;2023-03-03T07:00:26;21.67;;;13.00;;
67528;SDS011;54366;51.980;5.856;2023-03-03T07:03:06;23.25;;;13.80;;
67528;SDS011;54366;51.980;5.856;2023-03-03T07:05:43;21.13;;;13.48;;
67528;SDS011;54366;51.980;5.856;2023-03-03T07:08:17;24.23;;;14.48;;
67528;SDS011;54366;51.980;5.856;2023-03-03T07:10:45;20.70;;;12.93;;
67528;SDS011;54366;51.980;5.856;2023-03-03T07:15:56;20.95;;;13.75;;
67528;SDS011;54366;51.980;5.856;2023-03-03T07:18:38;20.73;;;12.73;;
67528;SDS011;54366;51.980;5.856;2023-03-03T07:21:36;23.48;;;14.27;;
67528;SDS011;54366;51.980;5.856;2023-03-03T07:24:18;21.23;;;12.85;;
67528;SDS011;54366;51.980;5.856;2023-03-03T07:33:07;19.38;;;12.20;;
67528;SDS011;54366;51.980;5.856;2023-03-03T07:35:51;15.82;;;9.57;;
67528;SDS011;54366;51.980;5.856;2023-03-03T07:38:39;13.10;;;8.15;;
67528;SDS011;54366;51.980;5.856;2023-03-03T07:41:17;14.98;;;9.10;;
67528;SDS011;54366;51.980;5.856;2023-03-03T07:43:59;16.58;;;10.45;;
67528;SDS011;54366;51.980;5.856;2023-03-03T07:46:41;17.80;;;10.90;;
67528;SDS011;54366;51.980;5.856;2023-03-03T07:49:22;19.58;;;11.05;;
67528;SDS011;54366;51.980;5.856;2023-03-03T07:52:24;14.73;;;9.82;;
67528;SDS011;54366;51.980;5.856;2023-03-03T07:55:34;13.88;;;8.60;;
67528;SDS011;54366;51.980;5.856;2023-03-03T07:58:38;13.48;;;8.55;;
67528;SDS011;54366;51.980;5.856;2023-03-03T08:04:25;14.43;;;8.73;;
67528;SDS011;54366;51.980;5.856;2023-03-03T08:07:15;13.88;;;8.38;;
67528;SDS011;54366;51.980;5.856;2023-03-03T08:09:49;14.70;;;9.25;;
67528;SDS011;54366;51.980;5.856;2023-03-03T08:15:23;12.13;;;7.95;;
67528;SDS011;54366;51.980;5.856;2023-03-03T08:17:58;12.57;;;7.32;;
67528;SDS011;54366;51.980;5.856;2023-03-03T08:20:49;13.75;;;8.55;;
67528;SDS011;54366;51.980;5.856;2023-03-03T08:23:23;13.93;;;7.78;;
67528;SDS011;54366;51.980;5.856;2023-03-03T08:25:56;11.30;;;7.22;;
67528;SDS011;54366;51.980;5.856;2023-03-03T08:28:29;11.13;;;7.28;;
67528;SDS011;54366;51.980;5.856;2023-03-03T08:30:56;14.60;;;8.70;;
67528;SDS011;54366;51.980;5.856;2023-03-03T08:33:28;13.93;;;9.07;;
67528;SDS011;54366;51.980;5.856;2023-03-03T08:36:01;14.75;;;8.55;;
67528;SDS011;54366;51.980;5.856;2023-03-03T08:38:34;10.45;;;6.47;;
67528;SDS011;54366;51.980;5.856;2023-03-03T08:41:02;15.27;;;8.60;;
67528;SDS011;54366;51.980;5.856;2023-03-03T08:43:35;14.13;;;7.80;;
67528;SDS011;54366;51.980;5.856;2023-03-03T08:46:08;13.55;;;8.23;;
67528;SDS011;54366;51.980;5.856;2023-03-03T08:48:42;11.15;;;7.03;;
67528;SDS011;54366;51.980;5.856;2023-03-03T08:51:15;13.13;;;7.88;;
67528;SDS011;54366;51.980;5.856;2023-03-03T08:53:48;12.10;;;8.50;;
67528;SDS011;54366;51.980;5.856;2023-03-03T08:56:21;14.63;;;8.90;;
67528;SDS011;54366;51.980;5.856;2023-03-03T08:59:08;15.82;;;9.00;;
67528;SDS011;54366;51.980;5.856;2023-03-03T09:01:40;12.20;;;7.80;;
67528;SDS011;54366;51.980;5.856;2023-03-03T09:04:15;11.20;;;7.20;;
67528;SDS011;54366;51.980;5.856;2023-03-03T09:06:48;12.15;;;7.53;;
67528;SDS011;54366;51.980;5.856;2023-03-03T09:09:21;13.90;;;7.85;;
67528;SDS011;54366;51.980;5.856;2023-03-03T09:11:56;10.60;;;6.90;;
67528;SDS011;54366;51.980;5.856;2023-03-03T09:14:30;11.50;;;7.78;;
67528;SDS011;54366;51.980;5.856;2023-03-03T09:17:06;11.07;;;7.22;;
67528;SDS011;54366;51.980;5.856;2023-03-03T09:19:59;10.65;;;6.30;;
67528;SDS011;54366;51.980;5.856;2023-03-03T09:22:48;13.63;;;7.18;;
67528;SDS011;54366;51.980;5.856;2023-03-03T09:25:33;10.68;;;6.60;;
67528;SDS011;54366;51.980;5.856;2023-03-03T09:28:18;10.15;;;7.00;;
67528;SDS011;54366;51.980;5.856;2023-03-03T09:30:56;9.77;;;6.45;;
67528;SDS011;54366;51.980;5.856;2023-03-03T09:33:39;8.73;;;5.55;;
67528;SDS011;54366;51.980;5.856;2023-03-03T09:36:22;8.35;;;5.50;;
67528;SDS011;54366;51.980;5.856;2023-03-03T09:39:15;6.90;;;4.88;;
67528;SDS011;54366;51.980;5.856;2023-03-03T09:45:45;7.35;;;4.35;;
67528;SDS011;54366;51.980;5.856;2023-03-03T09:48:37;6.95;;;4.88;;
67528;SDS011;54366;51.980;5.856;2023-03-03T09:51:37;7.20;;;5.25;;
67528;SDS011;54366;51.980;5.856;2023-03-03T09:54:38;6.95;;;5.03;;
67528;SDS011;54366;51.980;5.856;2023-03-03T10:13:57;7.15;;;4.55;;
67528;SDS011;54366;51.980;5.856;2023-03-03T10:20:25;6.18;;;4.70;;
67528;SDS011;54366;51.980;5.856;2023-03-03T10:30:21;5.68;;;4.45;;
67528;SDS011;54366;51.980;5.856;2023-03-03T10:33:31;7.75;;;4.97;;
67528;SDS011;54366;51.980;5.856;2023-03-03T10:36:19;8.70;;;5.50;;
67528;SDS011;54366;51.980;5.856;2023-03-03T10:39:32;7.88;;;5.25;;
67528;SDS011;54366;51.980;5.856;2023-03-03T10:42:31;6.35;;;4.78;;
67528;SDS011;54366;51.980;5.856;2023-03-03T10:49:20;8.15;;;5.35;;
67528;SDS011;54366;51.980;5.856;2023-03-03T10:52:18;8.98;;;5.32;;
67528;SDS011;54366;51.980;5.856;2023-03-03T10:58:44;7.55;;;5.47;;
67528;SDS011;54366;51.980;5.856;2023-03-03T11:01:47;6.85;;;5.03;;
67528;SDS011;54366;51.980;5.856;2023-03-03T11:04:35;7.38;;;4.97;;
67528;SDS011;54366;51.980;5.856;2023-03-03T11:10:50;5.70;;;4.03;;
67528;SDS011;54366;51.980;5.856;2023-03-03T11:19:25;4.82;;;3.58;;
67528;SDS011;54366;51.980;5.856;2023-03-03T11:32:18;4.13;;;3.15;;
67528;SDS011;54366;51.980;5.856;2023-03-03T11:35:12;4.47;;;3.78;;
67528;SDS011;54366;51.980;5.856;2023-03-03T11:41:19;3.83;;;3.00;;
67528;SDS011;54366;51.980;5.856;2023-03-03T11:48:30;5.60;;;3.25;;
67528;SDS011;54366;51.980;5.856;2023-03-03T11:50:05;5.05;;;3.17;;
67528;SDS011;54366;51.980;5.856;2023-03-03T11:53:53;3.55;;;3.13;;
67528;SDS011;54366;51.980;5.856;2023-03-03T11:56:22;4.18;;;3.03;;
67528;SDS011;54366;51.980;5.856;2023-03-03T11:59:25;2.92;;;2.47;;
67528;SDS011;54366;51.980;5.856;2023-03-03T12:05:32;3.97;;;2.60;;
67528;SDS011;54366;51.980;5.856;2023-03-03T12:20:30;4.30;;;2.50;;
67528;SDS011;54366;51.980;5.856;2023-03-03T12:26:58;3.08;;;2.22;;
67528;SDS011;54366;51.980;5.856;2023-03-03T12:29:45;4.40;;;2.50;;
67528;SDS011;54366;51.980;5.856;2023-03-03T12:33:22;5.22;;;2.78;;
67528;SDS011;54366;51.980;5.856;2023-03-03T12:40:13;2.92;;;2.20;;
67528;SDS011;54366;51.980;5.856;2023-03-03T12:43:16;2.55;;;1.90;;
67528;SDS011;54366;51.980;5.856;2023-03-03T12:46:24;3.20;;;2.10;;
67528;SDS011;54366;51.980;5.856;2023-03-03T12:49:21;2.80;;;1.70;;
67528;SDS011;54366;51.980;5.856;2023-03-03T12:55:29;2.33;;;1.90;;
67528;SDS011;54366;51.980;5.856;2023-03-03T12:58:34;2.35;;;1.83;;
67528;SDS011;54366;51.980;5.856;2023-03-03T13:01:38;2.50;;;1.80;;
67528;SDS011;54366;51.980;5.856;2023-03-03T13:04:43;2.90;;;2.10;;
67528;SDS011;54366;51.980;5.856;2023-03-03T13:07:30;3.38;;;2.03;;
67528;SDS011;54366;51.980;5.856;2023-03-03T13:10:44;2.55;;;1.90;;
67528;SDS011;54366;51.980;5.856;2023-03-03T13:13:38;2.65;;;2.00;;
67528;SDS011;54366;51.980;5.856;2023-03-03T13:16:26;2.47;;;1.85;;
67528;SDS011;54366;51.980;5.856;2023-03-03T13:19:10;2.47;;;1.67;;
67528;SDS011;54366;51.980;5.856;2023-03-03T13:22:01;2.22;;;1.30;;
67528;SDS011;54366;51.980;5.856;2023-03-03T13:24:50;1.83;;;1.20;;
67528;SDS011;54366;51.980;5.856;2023-03-03T13:27:40;3.13;;;1.63;;
67528;SDS011;54366;51.980;5.856;2023-03-03T13:30:22;2.38;;;1.42;;
67528;SDS011;54366;51.980;5.856;2023-03-03T13:33:09;2.42;;;1.40;;
67528;SDS011;54366;51.980;5.856;2023-03-03T13:35:49;2.00;;;1.70;;
67528;SDS011;54366;51.980;5.856;2023-03-03T13:38:30;3.42;;;2.10;;
67528;SDS011;54366;51.980;5.856;2023-03-03T13:41:27;2.58;;;1.70;;
67528;SDS011;54366;51.980;5.856;2023-03-03T13:44:10;3.05;;;1.60;;
67528;SDS011;54366;51.980;5.856;2023-03-03T13:46:57;2.97;;;1.45;;
67528;SDS011;54366;51.980;5.856;2023-03-03T13:53:40;3.38;;;2.05;;
67528;SDS011;54366;51.980;5.856;2023-03-03T13:56:42;4.72;;;2.65;;
67528;SDS011;54366;51.980;5.856;2023-03-03T14:03:02;7.38;;;4.88;;
67528;SDS011;54366;51.980;5.856;2023-03-03T14:06:00;6.25;;;4.20;;
67528;SDS011;54366;51.980;5.856;2023-03-03T14:08:42;6.05;;;4.40;;
67528;SDS011;54366;51.980;5.856;2023-03-03T14:11:44;6.47;;;4.03;;
67528;SDS011;54366;51.980;5.856;2023-03-03T14:14:32;4.50;;;3.10;;
67528;SDS011;54366;51.980;5.856;2023-03-03T14:17:49;4.50;;;3.15;;
67528;SDS011;54366;51.980;5.856;2023-03-03T14:21:34;3.45;;;2.75;;
67528;SDS011;54366;51.980;5.856;2023-03-03T14:23:58;5.05;;;2.85;;
67528;SDS011;54366;51.980;5.856;2023-03-03T14:29:51;4.57;;;2.65;;
67528;SDS011;54366;51.980;5.856;2023-03-03T14:32:26;3.75;;;2.45;;
67528;SDS011;54366;51.980;5.856;2023-03-03T14:35:00;3.53;;;2.78;;
67528;SDS011;54366;51.980;5.856;2023-03-03T14:37:45;3.67;;;2.63;;
67528;SDS011;54366;51.980;5.856;2023-03-03T14:40:20;4.15;;;2.60;;
67528;SDS011;54366;51.980;5.856;2023-03-03T14:42:54;3.42;;;2.58;;
67528;SDS011;54366;51.980;5.856;2023-03-03T14:45:38;4.80;;;3.05;;
67528;SDS011;54366;51.980;5.856;2023-03-03T14:48:17;4.20;;;2.90;;
67528;SDS011;54366;51.980;5.856;2023-03-03T14:50:58;5.75;;;3.38;;
67528;SDS011;54366;51.980;5.856;2023-03-03T14:53:52;3.57;;;2.43;;
67528;SDS011;54366;51.980;5.856;2023-03-03T14:56:23;2.75;;;2.05;;
67528;SDS011;54366;51.980;5.856;2023-03-03T14:59:16;4.15;;;3.00;;
67528;SDS011;54366;51.980;5.856;2023-03-03T15:05:28;3.47;;;2.60;;
67528;SDS011;54366;51.980;5.856;2023-03-03T15:10:46;1.80;;;1.40;;
67528;SDS011;54366;51.980;5.856;2023-03-03T15:16:16;2.95;;;1.00;;
67528;SDS011;54366;51.980;5.856;2023-03-03T15:20:28;3.05;;;1.40;;
67528;SDS011;54366;51.980;5.856;2023-03-03T15:22:05;3.47;;;1.10;;
67528;SDS011;54366;51.980;5.856;2023-03-03T15:25:00;1.88;;;1.05;;
67528;SDS011;54366;51.980;5.856;2023-03-03T15:27:38;1.63;;;1.00;;
67528;SDS011;54366;51.980;5.856;2023-03-03T15:30:24;3.65;;;1.20;;
67528;SDS011;54366;51.980;5.856;2023-03-03T15:36:55;3.17;;;1.40;;
67528;SDS011;54366;51.980;5.856;2023-03-03T15:39:49;3.85;;;1.80;;
67528;SDS011;54366;51.980;5.856;2023-03-03T15:42:49;4.10;;;3.25;;
67528;SDS011;54366;51.980;5.856;2023-03-03T15:48:41;3.50;;;1.65;;
67528;SDS011;54366;51.980;5.856;2023-03-03T15:54:45;3.45;;;1.77;;
67528;SDS011;54366;51.980;5.856;2023-03-03T15:58:32;3.33;;;1.80;;
67528;SDS011;54366;51.980;5.856;2023-03-03T16:01:17;2.78;;;1.30;;
67528;SDS011;54366;51.980;5.856;2023-03-03T16:04:10;5.68;;;2.97;;
67528;SDS011;54366;51.980;5.856;2023-03-03T16:10:09;2.00;;;1.30;;
67528;SDS011;54366;51.980;5.856;2023-03-03T16:16:42;8.40;;;5.68;;
67528;SDS011;54366;51.980;5.856;2023-03-03T16:19:19;5.22;;;2.65;;
67528;SDS011;54366;51.980;5.856;2023-03-03T16:30:11;4.18;;;2.45;;
67528;SDS011;54366;51.980;5.856;2023-03-03T16:35:19;4.22;;;3.83;;
67528;SDS011;54366;51.980;5.856;2023-03-03T16:38:18;5.10;;;2.88;;
67528;SDS011;54366;51.980;5.856;2023-03-03T16:41:05;4.78;;;2.53;;
67528;SDS011;54366;51.980;5.856;2023-03-03T16:44:33;3.10;;;2.30;;
67528;SDS011;54366;51.980;5.856;2023-03-03T16:46:54;2.38;;;1.52;;
67528;SDS011;54366;51.980;5.856;2023-03-03T16:51:14;2.92;;;1.38;;
67528;SDS011;54366;51.980;5.856;2023-03-03T16:53:21;1.42;;;1.30;;
67528;SDS011;54366;51.980;5.856;2023-03-03T16:59:35;3.10;;;1.00;;
67528;SDS011;54366;51.980;5.856;2023-03-03T17:06:20;3.22;;;1.13;;
67528;SDS011;54366;51.980;5.856;2023-03-03T17:16:13;3.70;;;0.98;;
67528;SDS011;54366;51.980;5.856;2023-03-03T17:19:18;2.25;;;1.15;;
67528;SDS011;54366;51.980;5.856;2023-03-03T17:25:21;2.35;;;0.90;;
67528;SDS011;54366;51.980;5.856;2023-03-03T17:28:05;3.00;;;1.50;;
67528;SDS011;54366;51.980;5.856;2023-03-03T17:37:50;4.28;;;1.52;;
67528;SDS011;54366;51.980;5.856;2023-03-03T17:40:52;5.03;;;2.67;;
67528;SDS011;54366;51.980;5.856;2023-03-03T17:47:08;3.47;;;2.05;;
67528;SDS011;54366;51.980;5.856;2023-03-03T17:50:32;4.15;;;1.65;;
67528;SDS011;54366;51.980;5.856;2023-03-03T17:56:28;5.57;;;1.60;;
67528;SDS011;54366;51.980;5.856;2023-03-03T17:59:28;3.70;;;1.02;;
67528;SDS011;54366;51.980;5.856;2023-03-03T18:03:00;6.82;;;2.15;;
67528;SDS011;54366;51.980;5.856;2023-03-03T18:12:23;2.85;;;1.40;;
67528;SDS011;54366;51.980;5.856;2023-03-03T18:18:04;4.35;;;1.30;;
67528;SDS011;54366;51.980;5.856;2023-03-03T18:21:13;1.90;;;1.15;;
67528;SDS011;54366;51.980;5.856;2023-03-03T18:23:49;4.18;;;1.42;;
67528;SDS011;54366;51.980;5.856;2023-03-03T18:26:32;5.18;;;1.63;;
67528;SDS011;54366;51.980;5.856;2023-03-03T18:32:15;5.43;;;1.50;;
67528;SDS011;54366;51.980;5.856;2023-03-03T18:34:51;3.53;;;0.95;;
67528;SDS011;54366;51.980;5.856;2023-03-03T18:37:52;4.45;;;1.38;;
67528;SDS011;54366;51.980;5.856;2023-03-03T18:40:30;24.77;;;12.80;;
67528;SDS011;54366;51.980;5.856;2023-03-03T18:46:44;8.25;;;2.67;;
67528;SDS011;54366;51.980;5.856;2023-03-03T18:49:17;5.25;;;1.90;;
67528;SDS011;54366;51.980;5.856;2023-03-03T18:51:51;8.48;;;2.35;;
67528;SDS011;54366;51.980;5.856;2023-03-03T18:54:53;7.82;;;1.90;;
67528;SDS011;54366;51.980;5.856;2023-03-03T19:04:16;9.57;;;2.30;;
67528;SDS011;54366;51.980;5.856;2023-03-03T19:06:54;10.05;;;2.72;;
67528;SDS011;54366;51.980;5.856;2023-03-03T19:12:18;9.52;;;2.67;;
67528;SDS011;54366;51.980;5.856;2023-03-03T19:18:27;7.38;;;2.13;;
67528;SDS011;54366;51.980;5.856;2023-03-03T19:21:06;13.35;;;3.00;;
67528;SDS011;54366;51.980;5.856;2023-03-03T19:24:27;8.20;;;2.25;;
67528;SDS011;54366;51.980;5.856;2023-03-03T19:27:26;9.07;;;2.20;;
67528;SDS011;54366;51.980;5.856;2023-03-03T19:30:25;8.90;;;2.03;;
67528;SDS011;54366;51.980;5.856;2023-03-03T19:33:27;8.77;;;2.00;;
67528;SDS011;54366;51.980;5.856;2023-03-03T19:36:27;9.70;;;2.38;;
67528;SDS011;54366;51.980;5.856;2023-03-03T19:39:19;9.82;;;2.05;;
67528;SDS011;54366;51.980;5.856;2023-03-03T19:55:18;18.33;;;7.78;;
67528;SDS011;54366;51.980;5.856;2023-03-03T20:01:19;14.82;;;5.40;;
67528;SDS011;54366;51.980;5.856;2023-03-03T20:04:35;26.58;;;12.77;;
67528;SDS011;54366;51.980;5.856;2023-03-03T20:07:32;32.78;;;14.95;;
67528;SDS011;54366;51.980;5.856;2023-03-03T20:10:40;67.47;;;32.30;;